Weather at Aden International Airport

Public forecast

Using degrees Celsius for public forecast. Weather courtesy of forecast.io.

Current aviation weather report (METAR) for Aden International Airport

2024/05/26 15:00 (retrieved 49 minutes ago)

OYAA 261500Z 24005KT 6000 FEW018 FEW038CB 36/22 Q1004 NOSIG

Closest aviation forecast (TAF) to Aden International Airport

Forecast is more than 12 hours old.

Closest forecast is Djibouti-Ambouli Airport, 134.0 nm (248.2 km) SW.

2024/05/25 18:22 (retrieved 21 hours ago)

TAF HDAM 251700Z 2518/2618 17006KT CAVOK BECMG 2600/2606 21005KT FEW020 BECMG 2606/2612 08011KT FEW023